sensor_id;sensor_type;location;lat;lon;timestamp;P1;durP1;ratioP1;P2;durP2;ratioP2
3939;SDS011;1984;48.312;9.244;2023-04-03T00:01:01;4.87;;;3.90;;
3939;SDS011;1984;48.312;9.244;2023-04-03T00:03:27;7.90;;;3.17;;
3939;SDS011;1984;48.312;9.244;2023-04-03T00:05:53;3.80;;;3.50;;
3939;SDS011;1984;48.312;9.244;2023-04-03T00:08:19;6.47;;;4.00;;
3939;SDS011;1984;48.312;9.244;2023-04-03T00:10:45;3.00;;;2.80;;
3939;SDS011;1984;48.312;9.244;2023-04-03T00:13:10;4.07;;;3.63;;
3939;SDS011;1984;48.312;9.244;2023-04-03T00:15:37;4.43;;;3.63;;
3939;SDS011;1984;48.312;9.244;2023-04-03T00:18:03;4.00;;;3.60;;
3939;SDS011;1984;48.312;9.244;2023-04-03T00:20:30;5.00;;;4.33;;
3939;SDS011;1984;48.312;9.244;2023-04-03T00:22:56;4.27;;;3.13;;
3939;SDS011;1984;48.312;9.244;2023-04-03T00:25:22;4.93;;;3.50;;
3939;SDS011;1984;48.312;9.244;2023-04-03T00:27:47;4.23;;;3.90;;
3939;SDS011;1984;48.312;9.244;2023-04-03T00:30:14;4.67;;;4.13;;
3939;SDS011;1984;48.312;9.244;2023-04-03T00:32:41;6.30;;;3.83;;
3939;SDS011;1984;48.312;9.244;2023-04-03T00:35:06;5.23;;;3.20;;
3939;SDS011;1984;48.312;9.244;2023-04-03T00:37:32;3.80;;;3.50;;
3939;SDS011;1984;48.312;9.244;2023-04-03T00:39:58;7.07;;;3.43;;
3939;SDS011;1984;48.312;9.244;2023-04-03T00:42:24;3.87;;;3.10;;
3939;SDS011;1984;48.312;9.244;2023-04-03T00:47:21;3.87;;;3.40;;
3939;SDS011;1984;48.312;9.244;2023-04-03T00:49:48;3.80;;;3.50;;
3939;SDS011;1984;48.312;9.244;2023-04-03T00:52:16;4.17;;;3.60;;
3939;SDS011;1984;48.312;9.244;2023-04-03T00:54:45;3.80;;;3.40;;
3939;SDS011;1984;48.312;9.244;2023-04-03T00:57:12;3.30;;;3.03;;
3939;SDS011;1984;48.312;9.244;2023-04-03T00:59:41;3.43;;;3.13;;
3939;SDS011;1984;48.312;9.244;2023-04-03T01:02:11;2.80;;;2.60;;
3939;SDS011;1984;48.312;9.244;2023-04-03T01:04:38;3.50;;;3.20;;
3939;SDS011;1984;48.312;9.244;2023-04-03T01:09:36;3.20;;;2.90;;
3939;SDS011;1984;48.312;9.244;2023-04-03T01:12:46;3.70;;;3.37;;
3939;SDS011;1984;48.312;9.244;2023-04-03T01:14:55;4.67;;;3.77;;
3939;SDS011;1984;48.312;9.244;2023-04-03T01:17:35;3.57;;;2.97;;
3939;SDS011;1984;48.312;9.244;2023-04-03T01:22:43;3.60;;;3.20;;
3939;SDS011;1984;48.312;9.244;2023-04-03T01:25:26;3.90;;;3.60;;
3939;SDS011;1984;48.312;9.244;2023-04-03T01:27:52;3.53;;;3.23;;
3939;SDS011;1984;48.312;9.244;2023-04-03T01:30:18;4.50;;;3.40;;
3939;SDS011;1984;48.312;9.244;2023-04-03T01:32:46;3.57;;;3.27;;
3939;SDS011;1984;48.312;9.244;2023-04-03T01:35:11;4.43;;;3.37;;
3939;SDS011;1984;48.312;9.244;2023-04-03T01:37:37;9.07;;;3.93;;
3939;SDS011;1984;48.312;9.244;2023-04-03T01:40:03;3.13;;;2.83;;
3939;SDS011;1984;48.312;9.244;2023-04-03T01:42:29;3.10;;;2.90;;
3939;SDS011;1984;48.312;9.244;2023-04-03T01:44:55;4.33;;;3.83;;
3939;SDS011;1984;48.312;9.244;2023-04-03T01:47:21;3.70;;;3.20;;
3939;SDS011;1984;48.312;9.244;2023-04-03T01:49:47;3.77;;;3.10;;
3939;SDS011;1984;48.312;9.244;2023-04-03T01:52:12;3.33;;;3.03;;
3939;SDS011;1984;48.312;9.244;2023-04-03T01:54:38;3.37;;;3.07;;
3939;SDS011;1984;48.312;9.244;2023-04-03T01:57:03;3.80;;;3.50;;
3939;SDS011;1984;48.312;9.244;2023-04-03T01:59:29;3.60;;;3.30;;
3939;SDS011;1984;48.312;9.244;2023-04-03T02:01:55;3.93;;;3.60;;
3939;SDS011;1984;48.312;9.244;2023-04-03T02:04:20;7.93;;;3.93;;
3939;SDS011;1984;48.312;9.244;2023-04-03T02:06:46;3.40;;;3.10;;
3939;SDS011;1984;48.312;9.244;2023-04-03T02:09:11;3.83;;;3.53;;
3939;SDS011;1984;48.312;9.244;2023-04-03T02:11:37;4.07;;;3.67;;
3939;SDS011;1984;48.312;9.244;2023-04-03T02:14:02;7.87;;;4.33;;
3939;SDS011;1984;48.312;9.244;2023-04-03T02:16:28;7.53;;;3.60;;
3939;SDS011;1984;48.312;9.244;2023-04-03T02:18:54;4.20;;;3.70;;
3939;SDS011;1984;48.312;9.244;2023-04-03T02:21:19;3.47;;;3.13;;
3939;SDS011;1984;48.312;9.244;2023-04-03T02:23:45;4.77;;;4.27;;
3939;SDS011;1984;48.312;9.244;2023-04-03T02:26:11;3.03;;;2.80;;
3939;SDS011;1984;48.312;9.244;2023-04-03T02:28:38;4.83;;;3.80;;
3939;SDS011;1984;48.312;9.244;2023-04-03T02:31:04;6.03;;;3.53;;
3939;SDS011;1984;48.312;9.244;2023-04-03T02:33:31;3.87;;;3.57;;
3939;SDS011;1984;48.312;9.244;2023-04-03T02:35:57;4.53;;;3.73;;
3939;SDS011;1984;48.312;9.244;2023-04-03T02:38:24;4.33;;;3.93;;
3939;SDS011;1984;48.312;9.244;2023-04-03T02:40:50;3.70;;;3.37;;
3939;SDS011;1984;48.312;9.244;2023-04-03T02:43:16;6.70;;;4.07;;
3939;SDS011;1984;48.312;9.244;2023-04-03T02:45:43;4.03;;;3.67;;
3939;SDS011;1984;48.312;9.244;2023-04-03T02:48:08;3.50;;;3.20;;
3939;SDS011;1984;48.312;9.244;2023-04-03T02:50:34;5.93;;;3.57;;
3939;SDS011;1984;48.312;9.244;2023-04-03T02:52:59;5.07;;;4.23;;
3939;SDS011;1984;48.312;9.244;2023-04-03T02:55:25;3.90;;;3.50;;
3939;SDS011;1984;48.312;9.244;2023-04-03T02:57:51;4.03;;;3.50;;
3939;SDS011;1984;48.312;9.244;2023-04-03T03:00:16;4.73;;;3.83;;
3939;SDS011;1984;48.312;9.244;2023-04-03T03:02:42;3.40;;;3.10;;
3939;SDS011;1984;48.312;9.244;2023-04-03T03:05:08;6.53;;;3.70;;
3939;SDS011;1984;48.312;9.244;2023-04-03T03:07:33;4.53;;;3.53;;
3939;SDS011;1984;48.312;9.244;2023-04-03T03:09:59;7.50;;;3.60;;
3939;SDS011;1984;48.312;9.244;2023-04-03T03:12:24;3.53;;;3.10;;
3939;SDS011;1984;48.312;9.244;2023-04-03T03:14:50;6.83;;;4.33;;
3939;SDS011;1984;48.312;9.244;2023-04-03T03:17:16;3.20;;;2.90;;
3939;SDS011;1984;48.312;9.244;2023-04-03T03:19:42;12.27;;;3.23;;
3939;SDS011;1984;48.312;9.244;2023-04-03T03:22:07;2.80;;;2.57;;
3939;SDS011;1984;48.312;9.244;2023-04-03T03:24:33;2.90;;;2.70;;
3939;SDS011;1984;48.312;9.244;2023-04-03T03:26:58;3.00;;;2.70;;
3939;SDS011;1984;48.312;9.244;2023-04-03T03:29:24;4.03;;;2.80;;
3939;SDS011;1984;48.312;9.244;2023-04-03T03:31:49;3.03;;;2.60;;
3939;SDS011;1984;48.312;9.244;2023-04-03T03:34:15;2.93;;;2.73;;
3939;SDS011;1984;48.312;9.244;2023-04-03T03:36:40;4.20;;;2.77;;
3939;SDS011;1984;48.312;9.244;2023-04-03T03:39:06;4.00;;;2.80;;
3939;SDS011;1984;48.312;9.244;2023-04-03T03:41:32;5.90;;;2.80;;
3939;SDS011;1984;48.312;9.244;2023-04-03T03:43:57;2.77;;;2.57;;
3939;SDS011;1984;48.312;9.244;2023-04-03T03:46:23;3.23;;;2.73;;
3939;SDS011;1984;48.312;9.244;2023-04-03T03:48:48;2.97;;;2.77;;
3939;SDS011;1984;48.312;9.244;2023-04-03T03:51:14;4.27;;;2.63;;
3939;SDS011;1984;48.312;9.244;2023-04-03T03:53:40;2.97;;;2.60;;
3939;SDS011;1984;48.312;9.244;2023-04-03T03:56:05;5.33;;;2.77;;
3939;SDS011;1984;48.312;9.244;2023-04-03T03:58:31;2.70;;;2.50;;
3939;SDS011;1984;48.312;9.244;2023-04-03T04:01:00;2.80;;;2.30;;
3939;SDS011;1984;48.312;9.244;2023-04-03T04:03:27;2.57;;;2.37;;
3939;SDS011;1984;48.312;9.244;2023-04-03T04:05:52;2.10;;;2.00;;
3939;SDS011;1984;48.312;9.244;2023-04-03T04:08:18;3.50;;;2.43;;
3939;SDS011;1984;48.312;9.244;2023-04-03T04:10:43;1.77;;;1.50;;
3939;SDS011;1984;48.312;9.244;2023-04-03T04:13:09;2.20;;;2.00;;
3939;SDS011;1984;48.312;9.244;2023-04-03T04:15:35;2.23;;;2.10;;
3939;SDS011;1984;48.312;9.244;2023-04-03T04:18:00;3.20;;;2.57;;
3939;SDS011;1984;48.312;9.244;2023-04-03T04:20:26;2.00;;;1.90;;
3939;SDS011;1984;48.312;9.244;2023-04-03T04:22:51;2.27;;;2.17;;
3939;SDS011;1984;48.312;9.244;2023-04-03T04:25:17;2.83;;;2.63;;
3939;SDS011;1984;48.312;9.244;2023-04-03T04:27:42;2.10;;;2.00;;
3939;SDS011;1984;48.312;9.244;2023-04-03T04:30:08;3.20;;;2.90;;
3939;SDS011;1984;48.312;9.244;2023-04-03T04:32:35;2.90;;;2.70;;
3939;SDS011;1984;48.312;9.244;2023-04-03T04:35:00;2.23;;;2.13;;
3939;SDS011;1984;48.312;9.244;2023-04-03T04:37:26;3.63;;;2.50;;
3939;SDS011;1984;48.312;9.244;2023-04-03T04:39:52;2.90;;;2.70;;
3939;SDS011;1984;48.312;9.244;2023-04-03T04:42:17;4.00;;;2.43;;
3939;SDS011;1984;48.312;9.244;2023-04-03T04:44:43;3.20;;;2.43;;
3939;SDS011;1984;48.312;9.244;2023-04-03T04:47:08;3.43;;;2.57;;
3939;SDS011;1984;48.312;9.244;2023-04-03T04:49:34;2.30;;;2.20;;
3939;SDS011;1984;48.312;9.244;2023-04-03T04:51:59;2.83;;;2.30;;
3939;SDS011;1984;48.312;9.244;2023-04-03T04:54:25;2.00;;;1.90;;
3939;SDS011;1984;48.312;9.244;2023-04-03T04:56:51;2.90;;;2.20;;
3939;SDS011;1984;48.312;9.244;2023-04-03T04:59:16;1.67;;;1.57;;
3939;SDS011;1984;48.312;9.244;2023-04-03T05:01:42;3.93;;;2.60;;
3939;SDS011;1984;48.312;9.244;2023-04-03T05:04:07;1.70;;;1.63;;
3939;SDS011;1984;48.312;9.244;2023-04-03T05:06:34;2.17;;;2.03;;
3939;SDS011;1984;48.312;9.244;2023-04-03T05:09:00;2.10;;;2.00;;
3939;SDS011;1984;48.312;9.244;2023-04-03T05:11:26;2.87;;;2.67;;
3939;SDS011;1984;48.312;9.244;2023-04-03T05:13:51;2.10;;;1.90;;
3939;SDS011;1984;48.312;9.244;2023-04-03T05:16:17;2.00;;;1.90;;
3939;SDS011;1984;48.312;9.244;2023-04-03T05:18:42;1.93;;;1.83;;
3939;SDS011;1984;48.312;9.244;2023-04-03T05:21:08;2.37;;;2.00;;
3939;SDS011;1984;48.312;9.244;2023-04-03T05:23:34;2.73;;;1.87;;
3939;SDS011;1984;48.312;9.244;2023-04-03T05:25:59;3.00;;;2.20;;
3939;SDS011;1984;48.312;9.244;2023-04-03T05:28:25;1.97;;;1.83;;
3939;SDS011;1984;48.312;9.244;2023-04-03T05:30:54;2.00;;;1.13;;
3939;SDS011;1984;48.312;9.244;2023-04-03T05:33:21;1.63;;;1.53;;
3939;SDS011;1984;48.312;9.244;2023-04-03T05:35:48;1.70;;;1.60;;
3939;SDS011;1984;48.312;9.244;2023-04-03T05:38:13;1.80;;;1.70;;
3939;SDS011;1984;48.312;9.244;2023-04-03T05:40:39;1.67;;;1.53;;
3939;SDS011;1984;48.312;9.244;2023-04-03T05:43:05;1.37;;;1.30;;
3939;SDS011;1984;48.312;9.244;2023-04-03T05:45:30;1.73;;;1.60;;
3939;SDS011;1984;48.312;9.244;2023-04-03T05:47:56;1.73;;;1.63;;
3939;SDS011;1984;48.312;9.244;2023-04-03T05:50:22;2.20;;;2.00;;
3939;SDS011;1984;48.312;9.244;2023-04-03T05:52:48;1.60;;;1.50;;
3939;SDS011;1984;48.312;9.244;2023-04-03T05:55:16;1.33;;;1.33;;
3939;SDS011;1984;48.312;9.244;2023-04-03T05:57:42;1.00;;;1.00;;
3939;SDS011;1984;48.312;9.244;2023-04-03T06:00:08;1.43;;;1.33;;
3939;SDS011;1984;48.312;9.244;2023-04-03T06:02:37;1.57;;;1.47;;
3939;SDS011;1984;48.312;9.244;2023-04-03T06:05:03;1.57;;;1.40;;
3939;SDS011;1984;48.312;9.244;2023-04-03T06:07:29;1.23;;;1.23;;
3939;SDS011;1984;48.312;9.244;2023-04-03T06:09:55;1.40;;;1.30;;
3939;SDS011;1984;48.312;9.244;2023-04-03T06:12:21;1.10;;;1.10;;
3939;SDS011;1984;48.312;9.244;2023-04-03T06:14:47;1.30;;;1.30;;
3939;SDS011;1984;48.312;9.244;2023-04-03T06:17:13;1.20;;;1.20;;
3939;SDS011;1984;48.312;9.244;2023-04-03T06:19:40;1.37;;;1.27;;
3939;SDS011;1984;48.312;9.244;2023-04-03T06:22:06;1.17;;;1.17;;
3939;SDS011;1984;48.312;9.244;2023-04-03T06:24:32;2.73;;;1.30;;
3939;SDS011;1984;48.312;9.244;2023-04-03T06:26:57;1.27;;;0.90;;
3939;SDS011;1984;48.312;9.244;2023-04-03T06:29:23;1.33;;;1.23;;
3939;SDS011;1984;48.312;9.244;2023-04-03T06:31:50;1.20;;;1.20;;
3939;SDS011;1984;48.312;9.244;2023-04-03T06:34:16;1.10;;;1.10;;
3939;SDS011;1984;48.312;9.244;2023-04-03T06:36:43;1.70;;;1.10;;
3939;SDS011;1984;48.312;9.244;2023-04-03T06:39:13;3.60;;;1.00;;
3939;SDS011;1984;48.312;9.244;2023-04-03T06:41:40;1.07;;;1.07;;
3939;SDS011;1984;48.312;9.244;2023-04-03T06:44:06;1.03;;;1.00;;
3939;SDS011;1984;48.312;9.244;2023-04-03T06:46:35;1.50;;;0.97;;
3939;SDS011;1984;48.312;9.244;2023-04-03T06:49:02;3.43;;;1.40;;
3939;SDS011;1984;48.312;9.244;2023-04-03T06:51:28;1.53;;;1.43;;
3939;SDS011;1984;48.312;9.244;2023-04-03T06:53:56;1.27;;;1.27;;
3939;SDS011;1984;48.312;9.244;2023-04-03T06:56:23;1.20;;;1.00;;
3939;SDS011;1984;48.312;9.244;2023-04-03T06:58:50;2.03;;;1.60;;
3939;SDS011;1984;48.312;9.244;2023-04-03T07:01:16;1.77;;;1.00;;
3939;SDS011;1984;48.312;9.244;2023-04-03T07:03:46;2.63;;;1.10;;
3939;SDS011;1984;48.312;9.244;2023-04-03T07:06:13;1.53;;;1.40;;
3939;SDS011;1984;48.312;9.244;2023-04-03T07:08:40;4.40;;;1.27;;
3939;SDS011;1984;48.312;9.244;2023-04-03T07:11:07;1.33;;;1.23;;
3939;SDS011;1984;48.312;9.244;2023-04-03T07:13:34;1.33;;;1.03;;
3939;SDS011;1984;48.312;9.244;2023-04-03T07:16:00;1.33;;;1.20;;
3939;SDS011;1984;48.312;9.244;2023-04-03T07:18:27;1.67;;;1.50;;
3939;SDS011;1984;48.312;9.244;2023-04-03T07:20:52;1.70;;;1.60;;
3939;SDS011;1984;48.312;9.244;2023-04-03T07:23:18;1.33;;;1.23;;
3939;SDS011;1984;48.312;9.244;2023-04-03T07:25:47;1.70;;;1.60;;
3939;SDS011;1984;48.312;9.244;2023-04-03T07:28:14;2.43;;;1.57;;
3939;SDS011;1984;48.312;9.244;2023-04-03T07:30:54;1.90;;;1.20;;
3939;SDS011;1984;48.312;9.244;2023-04-03T07:33:25;1.87;;;1.50;;
3939;SDS011;1984;48.312;9.244;2023-04-03T07:35:51;1.33;;;1.33;;
3939;SDS011;1984;48.312;9.244;2023-04-03T07:38:16;1.37;;;1.30;;
3939;SDS011;1984;48.312;9.244;2023-04-03T07:40:49;1.33;;;1.27;;
3939;SDS011;1984;48.312;9.244;2023-04-03T07:43:15;1.40;;;1.30;;
3939;SDS011;1984;48.312;9.244;2023-04-03T07:45:42;1.27;;;1.27;;
3939;SDS011;1984;48.312;9.244;2023-04-03T07:48:09;2.30;;;1.47;;
3939;SDS011;1984;48.312;9.244;2023-04-03T07:50:35;2.40;;;2.00;;
3939;SDS011;1984;48.312;9.244;2023-04-03T07:53:01;1.30;;;1.23;;
3939;SDS011;1984;48.312;9.244;2023-04-03T07:55:27;1.30;;;1.20;;
3939;SDS011;1984;48.312;9.244;2023-04-03T07:57:53;1.30;;;1.20;;
3939;SDS011;1984;48.312;9.244;2023-04-03T08:00:19;1.37;;;1.37;;
3939;SDS011;1984;48.312;9.244;2023-04-03T08:02:45;1.80;;;1.70;;
3939;SDS011;1984;48.312;9.244;2023-04-03T08:05:15;1.87;;;1.77;;
3939;SDS011;1984;48.312;9.244;2023-04-03T08:07:42;1.97;;;1.47;;
3939;SDS011;1984;48.312;9.244;2023-04-03T08:10:07;3.07;;;1.13;;
3939;SDS011;1984;48.312;9.244;2023-04-03T08:12:33;1.40;;;1.30;;
3939;SDS011;1984;48.312;9.244;2023-04-03T08:14:59;1.43;;;1.40;;
3939;SDS011;1984;48.312;9.244;2023-04-03T08:17:26;1.80;;;1.70;;
3939;SDS011;1984;48.312;9.244;2023-04-03T08:19:51;1.40;;;1.30;;
3939;SDS011;1984;48.312;9.244;2023-04-03T08:22:17;1.47;;;1.37;;
3939;SDS011;1984;48.312;9.244;2023-04-03T08:24:42;1.20;;;1.20;;
3939;SDS011;1984;48.312;9.244;2023-04-03T08:27:08;1.70;;;1.60;;
3939;SDS011;1984;48.312;9.244;2023-04-03T08:29:33;1.50;;;1.40;;
3939;SDS011;1984;48.312;9.244;2023-04-03T08:31:59;2.53;;;1.20;;
3939;SDS011;1984;48.312;9.244;2023-04-03T08:34:25;1.20;;;1.17;;
3939;SDS011;1984;48.312;9.244;2023-04-03T08:36:50;1.97;;;1.43;;
3939;SDS011;1984;48.312;9.244;2023-04-03T08:39:16;1.67;;;1.57;;
3939;SDS011;1984;48.312;9.244;2023-04-03T08:41:42;1.50;;;1.40;;
3939;SDS011;1984;48.312;9.244;2023-04-03T08:49:49;1.47;;;1.40;;
3939;SDS011;1984;48.312;9.244;2023-04-03T08:52:35;1.67;;;1.57;;
3939;SDS011;1984;48.312;9.244;2023-04-03T08:57:48;1.90;;;1.80;;
3939;SDS011;1984;48.312;9.244;2023-04-03T09:00:20;1.77;;;1.67;;
3939;SDS011;1984;48.312;9.244;2023-04-03T09:02:49;1.60;;;1.40;;
3939;SDS011;1984;48.312;9.244;2023-04-03T09:05:20;1.70;;;1.60;;
3939;SDS011;1984;48.312;9.244;2023-04-03T09:08:03;1.80;;;1.70;;
3939;SDS011;1984;48.312;9.244;2023-04-03T09:10:48;1.63;;;1.53;;
3939;SDS011;1984;48.312;9.244;2023-04-03T09:15:57;1.70;;;1.60;;
3939;SDS011;1984;48.312;9.244;2023-04-03T09:18:25;3.10;;;1.33;;
3939;SDS011;1984;48.312;9.244;2023-04-03T09:21:04;2.10;;;1.67;;
3939;SDS011;1984;48.312;9.244;2023-04-03T09:23:49;1.70;;;1.60;;
3939;SDS011;1984;48.312;9.244;2023-04-03T09:26:18;1.83;;;1.40;;
3939;SDS011;1984;48.312;9.244;2023-04-03T09:28:50;1.50;;;1.40;;
3939;SDS011;1984;48.312;9.244;2023-04-03T09:31:23;1.43;;;1.43;;
3939;SDS011;1984;48.312;9.244;2023-04-03T09:33:50;1.03;;;1.03;;
3939;SDS011;1984;48.312;9.244;2023-04-03T09:39:10;1.07;;;1.03;;
3939;SDS011;1984;48.312;9.244;2023-04-03T09:41:37;1.70;;;1.60;;
3939;SDS011;1984;48.312;9.244;2023-04-03T09:44:04;1.43;;;1.30;;
3939;SDS011;1984;48.312;9.244;2023-04-03T09:46:45;2.23;;;1.50;;
3939;SDS011;1984;48.312;9.244;2023-04-03T09:49:11;3.90;;;1.90;;
3939;SDS011;1984;48.312;9.244;2023-04-03T09:51:37;1.40;;;1.40;;
3939;SDS011;1984;48.312;9.244;2023-04-03T09:54:48;1.77;;;1.67;;
3939;SDS011;1984;48.312;9.244;2023-04-03T09:56:51;1.67;;;1.57;;
3939;SDS011;1984;48.312;9.244;2023-04-03T09:59:18;12.63;;;1.70;;
3939;SDS011;1984;48.312;9.244;2023-04-03T10:02:04;2.33;;;2.13;;
3939;SDS011;1984;48.312;9.244;2023-04-03T10:04:57;2.53;;;1.97;;
3939;SDS011;1984;48.312;9.244;2023-04-03T10:09:57;2.10;;;1.50;;
3939;SDS011;1984;48.312;9.244;2023-04-03T10:12:25;1.70;;;1.60;;
3939;SDS011;1984;48.312;9.244;2023-04-03T10:20:12;1.60;;;1.50;;
3939;SDS011;1984;48.312;9.244;2023-04-03T10:26:09;2.40;;;1.60;;
3939;SDS011;1984;48.312;9.244;2023-04-03T10:34:37;3.27;;;1.53;;
3939;SDS011;1984;48.312;9.244;2023-04-03T10:40:02;1.43;;;1.43;;
3939;SDS011;1984;48.312;9.244;2023-04-03T10:48:18;1.43;;;1.33;;
3939;SDS011;1984;48.312;9.244;2023-04-03T10:51:16;3.00;;;1.77;;
3939;SDS011;1984;48.312;9.244;2023-04-03T10:56:30;1.30;;;1.30;;
3939;SDS011;1984;48.312;9.244;2023-04-03T10:59:27;1.30;;;1.30;;
3939;SDS011;1984;48.312;9.244;2023-04-03T11:02:24;1.20;;;1.20;;
3939;SDS011;1984;48.312;9.244;2023-04-03T11:05:00;2.10;;;1.83;;
3939;SDS011;1984;48.312;9.244;2023-04-03T11:07:32;1.57;;;1.47;;
3939;SDS011;1984;48.312;9.244;2023-04-03T11:10:03;1.27;;;1.10;;
3939;SDS011;1984;48.312;9.244;2023-04-03T11:12:59;1.50;;;1.40;;
3939;SDS011;1984;48.312;9.244;2023-04-03T11:15:33;1.83;;;1.73;;
3939;SDS011;1984;48.312;9.244;2023-04-03T11:18:06;1.60;;;1.50;;
3939;SDS011;1984;48.312;9.244;2023-04-03T11:20:37;1.80;;;1.70;;
3939;SDS011;1984;48.312;9.244;2023-04-03T11:23:13;1.93;;;1.83;;
3939;SDS011;1984;48.312;9.244;2023-04-03T11:25:47;3.10;;;1.73;;
3939;SDS011;1984;48.312;9.244;2023-04-03T11:28:16;3.40;;;1.93;;
3939;SDS011;1984;48.312;9.244;2023-04-03T11:36:27;2.80;;;1.63;;
3939;SDS011;1984;48.312;9.244;2023-04-03T11:39:04;1.93;;;1.83;;
3939;SDS011;1984;48.312;9.244;2023-04-03T11:41:40;1.80;;;1.70;;
3939;SDS011;1984;48.312;9.244;2023-04-03T11:44:33;1.20;;;1.20;;
3939;SDS011;1984;48.312;9.244;2023-04-03T11:46:56;1.70;;;1.37;;
3939;SDS011;1984;48.312;9.244;2023-04-03T11:55:35;2.70;;;1.80;;
3939;SDS011;1984;48.312;9.244;2023-04-03T12:14:02;4.37;;;2.50;;
3939;SDS011;1984;48.312;9.244;2023-04-03T12:16:30;10.53;;;6.20;;
3939;SDS011;1984;48.312;9.244;2023-04-03T12:24:32;2.63;;;1.47;;
3939;SDS011;1984;48.312;9.244;2023-04-03T12:43:21;1.67;;;1.57;;
3939;SDS011;1984;48.312;9.244;2023-04-03T12:46:03;1.30;;;1.20;;
3939;SDS011;1984;48.312;9.244;2023-04-03T12:48:51;2.03;;;1.73;;
3939;SDS011;1984;48.312;9.244;2023-04-03T12:51:22;1.77;;;1.40;;
3939;SDS011;1984;48.312;9.244;2023-04-03T12:54:13;2.23;;;1.67;;
3939;SDS011;1984;48.312;9.244;2023-04-03T12:57:10;1.30;;;1.30;;
3939;SDS011;1984;48.312;9.244;2023-04-03T12:59:36;1.87;;;1.77;;
3939;SDS011;1984;48.312;9.244;2023-04-03T13:02:03;1.63;;;1.53;;
3939;SDS011;1984;48.312;9.244;2023-04-03T13:04:44;2.07;;;1.93;;
3939;SDS011;1984;48.312;9.244;2023-04-03T13:07:21;1.60;;;1.50;;
3939;SDS011;1984;48.312;9.244;2023-04-03T13:10:00;1.93;;;1.70;;
3939;SDS011;1984;48.312;9.244;2023-04-03T13:12:28;1.80;;;1.70;;
3939;SDS011;1984;48.312;9.244;2023-04-03T13:14:55;1.80;;;1.70;;
3939;SDS011;1984;48.312;9.244;2023-04-03T13:17:24;1.67;;;1.57;;
3939;SDS011;1984;48.312;9.244;2023-04-03T13:19:50;2.87;;;1.70;;
3939;SDS011;1984;48.312;9.244;2023-04-03T13:24:55;2.10;;;1.70;;
3939;SDS011;1984;48.312;9.244;2023-04-03T13:27:24;1.57;;;1.47;;
3939;SDS011;1984;48.312;9.244;2023-04-03T13:29:51;1.77;;;1.67;;
3939;SDS011;1984;48.312;9.244;2023-04-03T13:32:20;2.93;;;1.83;;
3939;SDS011;1984;48.312;9.244;2023-04-03T13:34:48;1.63;;;1.50;;
3939;SDS011;1984;48.312;9.244;2023-04-03T13:37:25;1.80;;;1.70;;
3939;SDS011;1984;48.312;9.244;2023-04-03T13:40:00;1.63;;;1.60;;
3939;SDS011;1984;48.312;9.244;2023-04-03T13:42:29;1.60;;;1.47;;
3939;SDS011;1984;48.312;9.244;2023-04-03T13:47:51;1.50;;;1.30;;
3939;SDS011;1984;48.312;9.244;2023-04-03T13:50:21;2.67;;;2.60;;
3939;SDS011;1984;48.312;9.244;2023-04-03T13:52:52;1.70;;;1.60;;
3939;SDS011;1984;48.312;9.244;2023-04-03T13:55:24;5.73;;;1.67;;
3939;SDS011;1984;48.312;9.244;2023-04-03T13:58:02;1.57;;;1.50;;
3939;SDS011;1984;48.312;9.244;2023-04-03T14:03:25;3.63;;;1.87;;
3939;SDS011;1984;48.312;9.244;2023-04-03T14:05:56;2.00;;;1.60;;
3939;SDS011;1984;48.312;9.244;2023-04-03T14:08:22;1.20;;;1.20;;
3939;SDS011;1984;48.312;9.244;2023-04-03T14:10:48;1.70;;;1.60;;
3939;SDS011;1984;48.312;9.244;2023-04-03T14:13:17;2.50;;;2.10;;
3939;SDS011;1984;48.312;9.244;2023-04-03T14:15:44;1.50;;;1.50;;
3939;SDS011;1984;48.312;9.244;2023-04-03T14:18:13;2.80;;;2.53;;
3939;SDS011;1984;48.312;9.244;2023-04-03T14:20:40;5.87;;;5.53;;
3939;SDS011;1984;48.312;9.244;2023-04-03T14:23:06;3.00;;;1.77;;
3939;SDS011;1984;48.312;9.244;2023-04-03T14:25:32;5.17;;;2.10;;
3939;SDS011;1984;48.312;9.244;2023-04-03T14:27:58;2.30;;;1.60;;
3939;SDS011;1984;48.312;9.244;2023-04-03T14:30:28;1.50;;;1.40;;
3939;SDS011;1984;48.312;9.244;2023-04-03T14:32:57;2.20;;;1.70;;
3939;SDS011;1984;48.312;9.244;2023-04-03T14:35:23;2.77;;;2.07;;
3939;SDS011;1984;48.312;9.244;2023-04-03T14:37:49;1.80;;;1.50;;
3939;SDS011;1984;48.312;9.244;2023-04-03T14:40:23;1.47;;;1.40;;
3939;SDS011;1984;48.312;9.244;2023-04-03T14:42:50;1.90;;;1.80;;
3939;SDS011;1984;48.312;9.244;2023-04-03T14:45:16;2.10;;;1.97;;
3939;SDS011;1984;48.312;9.244;2023-04-03T14:47:53;4.10;;;1.80;;
3939;SDS011;1984;48.312;9.244;2023-04-03T14:50:22;2.33;;;2.00;;
3939;SDS011;1984;48.312;9.244;2023-04-03T14:52:50;5.47;;;1.70;;
3939;SDS011;1984;48.312;9.244;2023-04-03T14:55:19;2.60;;;1.63;;
3939;SDS011;1984;48.312;9.244;2023-04-03T14:57:46;2.20;;;1.80;;
3939;SDS011;1984;48.312;9.244;2023-04-03T15:00:12;3.10;;;2.10;;
3939;SDS011;1984;48.312;9.244;2023-04-03T15:02:41;1.60;;;1.50;;
3939;SDS011;1984;48.312;9.244;2023-04-03T15:05:08;3.90;;;2.30;;
3939;SDS011;1984;48.312;9.244;2023-04-03T15:07:35;1.73;;;1.63;;
3939;SDS011;1984;48.312;9.244;2023-04-03T15:10:28;2.00;;;1.90;;
3939;SDS011;1984;48.312;9.244;2023-04-03T15:12:54;3.77;;;1.93;;
3939;SDS011;1984;48.312;9.244;2023-04-03T15:15:21;1.80;;;1.70;;
3939;SDS011;1984;48.312;9.244;2023-04-03T15:17:47;2.00;;;1.90;;
3939;SDS011;1984;48.312;9.244;2023-04-03T15:20:19;2.00;;;1.90;;
3939;SDS011;1984;48.312;9.244;2023-04-03T15:22:47;1.43;;;1.40;;
3939;SDS011;1984;48.312;9.244;2023-04-03T15:25:13;2.30;;;2.10;;
3939;SDS011;1984;48.312;9.244;2023-04-03T15:27:39;3.00;;;1.90;;
3939;SDS011;1984;48.312;9.244;2023-04-03T15:30:06;2.40;;;1.87;;
3939;SDS011;1984;48.312;9.244;2023-04-03T15:32:33;2.17;;;2.07;;
3939;SDS011;1984;48.312;9.244;2023-04-03T15:35:00;1.80;;;1.70;;
3939;SDS011;1984;48.312;9.244;2023-04-03T15:37:27;2.47;;;2.00;;
3939;SDS011;1984;48.312;9.244;2023-04-03T15:39:52;2.50;;;2.10;;
3939;SDS011;1984;48.312;9.244;2023-04-03T15:42:18;2.20;;;2.10;;
3939;SDS011;1984;48.312;9.244;2023-04-03T15:44:44;4.93;;;2.90;;
3939;SDS011;1984;48.312;9.244;2023-04-03T15:47:09;3.00;;;2.80;;
3939;SDS011;1984;48.312;9.244;2023-04-03T15:49:35;2.67;;;2.47;;
3939;SDS011;1984;48.312;9.244;2023-04-03T15:52:01;3.10;;;1.77;;
3939;SDS011;1984;48.312;9.244;2023-04-03T15:54:26;3.70;;;2.80;;
3939;SDS011;1984;48.312;9.244;2023-04-03T15:56:54;2.10;;;2.00;;
3939;SDS011;1984;48.312;9.244;2023-04-03T15:59:20;2.93;;;1.47;;
3939;SDS011;1984;48.312;9.244;2023-04-03T16:01:45;3.27;;;1.60;;
3939;SDS011;1984;48.312;9.244;2023-04-03T16:04:11;4.30;;;1.30;;
3939;SDS011;1984;48.312;9.244;2023-04-03T16:06:37;2.00;;;1.90;;
3939;SDS011;1984;48.312;9.244;2023-04-03T16:09:03;1.50;;;1.40;;
3939;SDS011;1984;48.312;9.244;2023-04-03T16:11:29;1.50;;;1.40;;
3939;SDS011;1984;48.312;9.244;2023-04-03T16:13:55;1.83;;;1.73;;
3939;SDS011;1984;48.312;9.244;2023-04-03T16:16:21;1.60;;;1.50;;
3939;SDS011;1984;48.312;9.244;2023-04-03T16:18:48;1.33;;;1.30;;
3939;SDS011;1984;48.312;9.244;2023-04-03T16:21:14;1.43;;;1.40;;
3939;SDS011;1984;48.312;9.244;2023-04-03T16:23:41;3.90;;;2.20;;
3939;SDS011;1984;48.312;9.244;2023-04-03T16:26:06;1.40;;;1.30;;
3939;SDS011;1984;48.312;9.244;2023-04-03T16:28:32;1.70;;;1.60;;
3939;SDS011;1984;48.312;9.244;2023-04-03T16:30:58;2.10;;;1.60;;
3939;SDS011;1984;48.312;9.244;2023-04-03T16:33:25;1.57;;;1.50;;
3939;SDS011;1984;48.312;9.244;2023-04-03T16:35:50;2.73;;;1.30;;
3939;SDS011;1984;48.312;9.244;2023-04-03T16:38:17;7.83;;;4.90;;
3939;SDS011;1984;48.312;9.244;2023-04-03T16:40:43;4.40;;;3.20;;
3939;SDS011;1984;48.312;9.244;2023-04-03T16:43:09;2.10;;;2.00;;
3939;SDS011;1984;48.312;9.244;2023-04-03T16:45:35;2.17;;;1.80;;
3939;SDS011;1984;48.312;9.244;2023-04-03T16:48:01;3.07;;;1.90;;
3939;SDS011;1984;48.312;9.244;2023-04-03T16:50:26;1.90;;;1.80;;
3939;SDS011;1984;48.312;9.244;2023-04-03T16:52:52;4.50;;;2.50;;
3939;SDS011;1984;48.312;9.244;2023-04-03T16:55:18;2.80;;;2.60;;
3939;SDS011;1984;48.312;9.244;2023-04-03T16:57:43;1.70;;;1.60;;
3939;SDS011;1984;48.312;9.244;2023-04-03T17:00:09;3.40;;;1.93;;
3939;SDS011;1984;48.312;9.244;2023-04-03T17:02:35;2.40;;;2.20;;
3939;SDS011;1984;48.312;9.244;2023-04-03T17:05:01;1.77;;;1.50;;
3939;SDS011;1984;48.312;9.244;2023-04-03T17:07:26;2.43;;;2.13;;
3939;SDS011;1984;48.312;9.244;2023-04-03T17:09:52;3.90;;;1.40;;